EJU78NK LFPO-EGHI
Flight info
| Callsign | EJU78NK |
|---|---|
| Flight time | 0h 39m |
| Altitude | 24000 |
| Route | OPALE DCT KESAX DCT KUNAV N20 ELDAX |
| Aircraft | A320/M-SDE3FGHIRWY/LB1 |
Departure
| Time | 2026-05-09 14:26 |
|---|---|
| Airport | Paris-Orly Airport (LFPO) |
Arrival
| Time | 2026-05-09 15:06 |
|---|---|
| Airport | Southampton Airport (EGHI) |
| Time | Latitude | Longitude | Altitude | Speed | Heading |
|---|---|---|---|---|---|
| 2026-05-09 13:57 | 48.72602 | 2.36166 | 298 ft | 0 kts | 339° |
| 2026-05-09 14:09 | 48.72601 | 2.36166 | 310 ft | 0 kts | 339° |
| 2026-05-09 14:15 | 48.72591 | 2.36172 | 283 ft | 3 kts | 339° |
| 2026-05-09 14:15 | 48.72572 | 2.36183 | 290 ft | 3 kts | 339° |
| 2026-05-09 14:15 | 48.72553 | 2.36194 | 288 ft | 3 kts | 339° |
| 2026-05-09 14:16 | 48.72535 | 2.36205 | 287 ft | 3 kts | 330° |
| 2026-05-09 14:16 | 48.72520 | 2.36223 | 290 ft | 3 kts | 305° |
| 2026-05-09 14:16 | 48.72512 | 2.36248 | 288 ft | 3 kts | 268° |
| 2026-05-09 14:16 | 48.72514 | 2.36266 | 288 ft | 2 kts | 255° |
| 2026-05-09 14:17 | 48.72517 | 2.36288 | 289 ft | 1 kts | 255° |
| 2026-05-09 14:17 | 48.72518 | 2.36290 | 290 ft | 0 kts | 255° |
| 2026-05-09 14:19 | 48.72518 | 2.36289 | 289 ft | 1 kts | 255° |
| 2026-05-09 14:19 | 48.72503 | 2.36209 | 288 ft | 15 kts | 254° |
| 2026-05-09 14:19 | 48.72468 | 2.35992 | 285 ft | 27 kts | 265° |
| 2026-05-09 14:19 | 48.72472 | 2.35725 | 288 ft | 20 kts | 253° |
| 2026-05-09 14:20 | 48.72431 | 2.35502 | 290 ft | 25 kts | 255° |
| 2026-05-09 14:20 | 48.72477 | 2.35350 | 286 ft | 17 kts | 342° |
| 2026-05-09 14:20 | 48.72631 | 2.35287 | 285 ft | 28 kts | 345° |
| 2026-05-09 14:21 | 48.72889 | 2.35324 | 288 ft | 15 kts | 17° |
| 2026-05-09 14:21 | 48.72993 | 2.35378 | 288 ft | 17 kts | 24° |
| 2026-05-09 14:21 | 48.73086 | 2.35519 | 287 ft | 21 kts | 58° |
| 2026-05-09 14:21 | 48.73192 | 2.35640 | 289 ft | 19 kts | 46° |
| 2026-05-09 14:22 | 48.73255 | 2.35822 | 285 ft | 20 kts | 61° |
| 2026-05-09 14:22 | 48.73320 | 2.35996 | 287 ft | 14 kts | 62° |
| 2026-05-09 14:22 | 48.73364 | 2.36073 | 286 ft | 0 kts | 29° |
| 2026-05-09 14:23 | 48.73374 | 2.36082 | 286 ft | 5 kts | 26° |
| 2026-05-09 14:23 | 48.73404 | 2.36098 | 287 ft | 4 kts | 15° |
| 2026-05-09 14:23 | 48.73423 | 2.36102 | 286 ft | 2 kts | 5° |
| 2026-05-09 14:23 | 48.73432 | 2.36102 | 286 ft | 0 kts | 358° |
| 2026-05-09 14:24 | 48.73437 | 2.36101 | 286 ft | 4 kts | 358° |
| 2026-05-09 14:24 | 48.73501 | 2.36063 | 287 ft | 16 kts | 327° |
| 2026-05-09 14:25 | 48.73517 | 2.35987 | 286 ft | 7 kts | 242° |
| 2026-05-09 14:25 | 48.73515 | 2.35980 | 289 ft | 0 kts | 240° |
| 2026-05-09 14:25 | 48.73468 | 2.35852 | 287 ft | 52 kts | 241° |
| 2026-05-09 14:25 | 48.73156 | 2.34965 | 289 ft | 136 kts | 242° |
| 2026-05-09 14:26 | 48.72594 | 2.33365 | 395 ft | 193 kts | 241° |
| 2026-05-09 14:26 | 48.71965 | 2.31576 | 1320 ft | 192 kts | 241° |
| 2026-05-09 14:26 | 48.71299 | 2.29823 | 1974 ft | 199 kts | 236° |
| 2026-05-09 14:26 | 48.70509 | 2.27986 | 2321 ft | 219 kts | 235° |
| 2026-05-09 14:27 | 48.69613 | 2.25965 | 2712 ft | 242 kts | 236° |
| 2026-05-09 14:27 | 48.68640 | 2.23758 | 3225 ft | 263 kts | 235° |
| 2026-05-09 14:27 | 48.67608 | 2.21407 | 4035 ft | 271 kts | 235° |
| 2026-05-09 14:27 | 48.66567 | 2.18987 | 4934 ft | 277 kts | 238° |
| 2026-05-09 14:28 | 48.65879 | 2.16407 | 6197 ft | 260 kts | 258° |
| 2026-05-09 14:28 | 48.65814 | 2.13758 | 7386 ft | 250 kts | 277° |
| 2026-05-09 14:28 | 48.66410 | 2.11262 | 8259 ft | 253 kts | 301° |
| 2026-05-09 14:28 | 48.67617 | 2.09307 | 9032 ft | 258 kts | 324° |
| 2026-05-09 14:29 | 48.69236 | 2.08209 | 9809 ft | 262 kts | 348° |
| 2026-05-09 14:29 | 48.71054 | 2.07609 | 10418 ft | 271 kts | 341° |
| 2026-05-09 14:29 | 48.72862 | 2.06465 | 10677 ft | 293 kts | 332° |
| 2026-05-09 14:29 | 48.74699 | 2.04958 | 10911 ft | 316 kts | 329° |
| 2026-05-09 14:30 | 48.76697 | 2.03209 | 11133 ft | 339 kts | 328° |
| 2026-05-09 14:30 | 48.78761 | 2.01421 | 11605 ft | 350 kts | 329° |
| 2026-05-09 14:30 | 48.80907 | 1.99633 | 12311 ft | 354 kts | 330° |
| 2026-05-09 14:30 | 48.83102 | 1.97878 | 13034 ft | 358 kts | 331° |
| 2026-05-09 14:31 | 48.85335 | 1.96148 | 13753 ft | 362 kts | 331° |
| 2026-05-09 14:31 | 48.87602 | 1.94418 | 14378 ft | 366 kts | 332° |
| 2026-05-09 14:31 | 48.89852 | 1.92708 | 14992 ft | 369 kts | 331° |
| 2026-05-09 14:31 | 48.92166 | 1.90949 | 15615 ft | 373 kts | 331° |
| 2026-05-09 14:32 | 48.94500 | 1.89169 | 16241 ft | 376 kts | 331° |
| 2026-05-09 14:32 | 48.96846 | 1.87370 | 16851 ft | 380 kts | 331° |
| 2026-05-09 14:32 | 48.99215 | 1.85545 | 17458 ft | 383 kts | 330° |
| 2026-05-09 14:32 | 49.01606 | 1.83695 | 18066 ft | 387 kts | 330° |
| 2026-05-09 14:33 | 49.04017 | 1.81825 | 18605 ft | 390 kts | 330° |
| 2026-05-09 14:33 | 49.06444 | 1.79942 | 19136 ft | 393 kts | 330° |
| 2026-05-09 14:33 | 49.08889 | 1.78042 | 19692 ft | 396 kts | 330° |
| 2026-05-09 14:33 | 49.11320 | 1.76148 | 20228 ft | 398 kts | 330° |
| 2026-05-09 14:34 | 49.13801 | 1.74217 | 20750 ft | 402 kts | 329° |
| 2026-05-09 14:34 | 49.16298 | 1.72278 | 21279 ft | 405 kts | 329° |
| 2026-05-09 14:34 | 49.18821 | 1.70316 | 21801 ft | 408 kts | 329° |
| 2026-05-09 14:34 | 49.21363 | 1.68335 | 22309 ft | 411 kts | 329° |
| 2026-05-09 14:35 | 49.23916 | 1.66342 | 22815 ft | 414 kts | 329° |
| 2026-05-09 14:35 | 49.26491 | 1.64325 | 23312 ft | 417 kts | 329° |
| 2026-05-09 14:35 | 49.29078 | 1.62298 | 23749 ft | 420 kts | 328° |
| 2026-05-09 14:35 | 49.31690 | 1.60249 | 23947 ft | 422 kts | 328° |
| 2026-05-09 14:36 | 49.34284 | 1.58219 | 23993 ft | 416 kts | 328° |
| 2026-05-09 14:36 | 49.36857 | 1.56206 | 23996 ft | 414 kts | 328° |
| 2026-05-09 14:36 | 49.38557 | 1.54873 | 23997 ft | 414 kts | 328° |
| 2026-05-09 14:36 | 49.41122 | 1.52863 | 23996 ft | 414 kts | 328° |
| 2026-05-09 14:37 | 49.43717 | 1.50823 | 24000 ft | 413 kts | 328° |
| 2026-05-09 14:37 | 49.46261 | 1.48832 | 23998 ft | 415 kts | 328° |
| 2026-05-09 14:37 | 49.48826 | 1.46816 | 23999 ft | 414 kts | 328° |
| 2026-05-09 14:37 | 49.51385 | 1.44792 | 23998 ft | 413 kts | 328° |
| 2026-05-09 14:38 | 49.53944 | 1.42761 | 23999 ft | 413 kts | 329° |
| 2026-05-09 14:38 | 49.56500 | 1.40734 | 23999 ft | 414 kts | 329° |
| 2026-05-09 14:38 | 49.59059 | 1.38706 | 23999 ft | 414 kts | 329° |
| 2026-05-09 14:38 | 49.61616 | 1.36672 | 24000 ft | 413 kts | 328° |
| 2026-05-09 14:39 | 49.64170 | 1.34632 | 24015 ft | 413 kts | 329° |
| 2026-05-09 14:39 | 49.66713 | 1.32605 | 24008 ft | 414 kts | 329° |
| 2026-05-09 14:39 | 49.69293 | 1.30551 | 24004 ft | 414 kts | 329° |
| 2026-05-09 14:39 | 49.71849 | 1.28510 | 24004 ft | 414 kts | 329° |
| 2026-05-09 14:40 | 49.74408 | 1.26461 | 24006 ft | 414 kts | 329° |
| 2026-05-09 14:40 | 49.76964 | 1.24412 | 24004 ft | 414 kts | 329° |
| 2026-05-09 14:40 | 49.79473 | 1.22245 | 24011 ft | 410 kts | 321° |
| 2026-05-09 14:40 | 49.81541 | 1.19290 | 24013 ft | 402 kts | 305° |
| 2026-05-09 14:41 | 49.83254 | 1.15868 | 24008 ft | 401 kts | 303° |
| 2026-05-09 14:41 | 49.84948 | 1.12439 | 24007 ft | 401 kts | 303° |
| 2026-05-09 14:41 | 49.86646 | 1.08992 | 24003 ft | 402 kts | 303° |
| 2026-05-09 14:41 | 49.88340 | 1.05544 | 24012 ft | 402 kts | 303° |
| 2026-05-09 14:42 | 49.90026 | 1.02100 | 24010 ft | 402 kts | 303° |
| 2026-05-09 14:42 | 49.91715 | 0.98639 | 24020 ft | 402 kts | 303° |
| 2026-05-09 14:42 | 49.93396 | 0.95191 | 24014 ft | 402 kts | 303° |
| 2026-05-09 14:42 | 49.95085 | 0.91725 | 24008 ft | 402 kts | 303° |
| 2026-05-09 14:43 | 49.96758 | 0.88293 | 24036 ft | 402 kts | 304° |
| 2026-05-09 14:43 | 49.98461 | 0.84799 | 24027 ft | 402 kts | 304° |
| 2026-05-09 14:43 | 50.00148 | 0.81327 | 24032 ft | 403 kts | 304° |
| 2026-05-09 14:43 | 50.01835 | 0.77851 | 24033 ft | 403 kts | 304° |
| 2026-05-09 14:44 | 50.03521 | 0.74376 | 24031 ft | 403 kts | 304° |
| 2026-05-09 14:44 | 50.05213 | 0.70891 | 24032 ft | 403 kts | 304° |
| 2026-05-09 14:44 | 50.06903 | 0.67412 | 24031 ft | 403 kts | 304° |
| 2026-05-09 14:44 | 50.08596 | 0.63923 | 24032 ft | 403 kts | 304° |
| 2026-05-09 14:45 | 50.10264 | 0.60469 | 24032 ft | 403 kts | 304° |
| 2026-05-09 14:45 | 50.11947 | 0.56973 | 24035 ft | 403 kts | 304° |
| 2026-05-09 14:45 | 50.13625 | 0.53480 | 24037 ft | 403 kts | 303° |
| 2026-05-09 14:45 | 50.15301 | 0.49987 | 24042 ft | 403 kts | 303° |
| 2026-05-09 14:46 | 50.16983 | 0.46479 | 24036 ft | 403 kts | 303° |
| 2026-05-09 14:46 | 50.18658 | 0.42983 | 24040 ft | 403 kts | 303° |
| 2026-05-09 14:46 | 50.20340 | 0.39469 | 24043 ft | 403 kts | 303° |
| 2026-05-09 14:46 | 50.22017 | 0.35968 | 24047 ft | 403 kts | 303° |
| 2026-05-09 14:47 | 50.23697 | 0.32460 | 24041 ft | 403 kts | 303° |
| 2026-05-09 14:47 | 50.25372 | 0.28954 | 24034 ft | 403 kts | 303° |
| 2026-05-09 14:47 | 50.27049 | 0.25440 | 23409 ft | 405 kts | 303° |
| 2026-05-09 14:47 | 50.28729 | 0.21921 | 22893 ft | 400 kts | 303° |
| 2026-05-09 14:48 | 50.30385 | 0.18446 | 22423 ft | 395 kts | 303° |
| 2026-05-09 14:48 | 50.32014 | 0.15013 | 21937 ft | 391 kts | 304° |
| 2026-05-09 14:48 | 50.33628 | 0.11602 | 21479 ft | 388 kts | 303° |
| 2026-05-09 14:48 | 50.35221 | 0.08225 | 20994 ft | 384 kts | 303° |
| 2026-05-09 14:49 | 50.36806 | 0.04865 | 20525 ft | 382 kts | 304° |
| 2026-05-09 14:49 | 50.38378 | 0.01534 | 20043 ft | 379 kts | 304° |
| 2026-05-09 14:49 | 50.39939 | -0.01784 | 19562 ft | 377 kts | 304° |
| 2026-05-09 14:49 | 50.41491 | -0.05085 | 19083 ft | 375 kts | 303° |
| 2026-05-09 14:50 | 50.43034 | -0.08379 | 18617 ft | 373 kts | 304° |
| 2026-05-09 14:50 | 50.44572 | -0.11653 | 18111 ft | 372 kts | 304° |
| 2026-05-09 14:50 | 50.46101 | -0.14906 | 17629 ft | 369 kts | 304° |
| 2026-05-09 14:50 | 50.47597 | -0.18089 | 17174 ft | 365 kts | 304° |
| 2026-05-09 14:51 | 50.49097 | -0.21290 | 16719 ft | 362 kts | 304° |
| 2026-05-09 14:51 | 50.50581 | -0.24463 | 16268 ft | 359 kts | 304° |
| 2026-05-09 14:51 | 50.52050 | -0.27611 | 15825 ft | 356 kts | 304° |
| 2026-05-09 14:51 | 50.53509 | -0.30744 | 15384 ft | 354 kts | 304° |
| 2026-05-09 14:52 | 50.54956 | -0.33857 | 14950 ft | 352 kts | 304° |
| 2026-05-09 14:52 | 50.56395 | -0.36955 | 14509 ft | 350 kts | 304° |
| 2026-05-09 14:52 | 50.57826 | -0.40036 | 14076 ft | 348 kts | 304° |
| 2026-05-09 14:52 | 50.59375 | -0.42944 | 13613 ft | 347 kts | 314° |
| 2026-05-09 14:53 | 50.61084 | -0.45619 | 13156 ft | 345 kts | 313° |
| 2026-05-09 14:53 | 50.62769 | -0.48275 | 12717 ft | 342 kts | 314° |
| 2026-05-09 14:53 | 50.64441 | -0.50919 | 12277 ft | 339 kts | 314° |
| 2026-05-09 14:53 | 50.66099 | -0.53542 | 11825 ft | 336 kts | 314° |
| 2026-05-09 14:54 | 50.67709 | -0.56192 | 11388 ft | 333 kts | 308° |
| 2026-05-09 14:54 | 50.68956 | -0.59244 | 10944 ft | 330 kts | 295° |
| 2026-05-09 14:54 | 50.69754 | -0.62612 | 10510 ft | 327 kts | 287° |
| 2026-05-09 14:54 | 50.70437 | -0.66007 | 10256 ft | 319 kts | 288° |
| 2026-05-09 14:55 | 50.71100 | -0.69276 | 10129 ft | 307 kts | 288° |
| 2026-05-09 14:55 | 50.71739 | -0.72425 | 9975 ft | 297 kts | 288° |
| 2026-05-09 14:55 | 50.72365 | -0.75505 | 9640 ft | 293 kts | 288° |
| 2026-05-09 14:55 | 50.72985 | -0.78566 | 9231 ft | 292 kts | 288° |
| 2026-05-09 14:56 | 50.73600 | -0.81619 | 8877 ft | 290 kts | 288° |
| 2026-05-09 14:56 | 50.74209 | -0.84639 | 8634 ft | 289 kts | 288° |
| 2026-05-09 14:56 | 50.74816 | -0.87648 | 8375 ft | 286 kts | 288° |
| 2026-05-09 14:56 | 50.75420 | -0.90643 | 8112 ft | 286 kts | 289° |
| 2026-05-09 14:57 | 50.76023 | -0.93645 | 7840 ft | 287 kts | 288° |
| 2026-05-09 14:57 | 50.76621 | -0.96639 | 7578 ft | 285 kts | 288° |
| 2026-05-09 14:57 | 50.77216 | -0.99620 | 7325 ft | 284 kts | 288° |
| 2026-05-09 14:57 | 50.77691 | -1.02643 | 7062 ft | 283 kts | 278° |
| 2026-05-09 14:58 | 50.77737 | -1.05693 | 6924 ft | 272 kts | 269° |
| 2026-05-09 14:58 | 50.77699 | -1.08616 | 6787 ft | 261 kts | 270° |
| 2026-05-09 14:58 | 50.77680 | -1.11446 | 6569 ft | 256 kts | 271° |
| 2026-05-09 14:58 | 50.77663 | -1.14253 | 6319 ft | 256 kts | 271° |
| 2026-05-09 14:59 | 50.77648 | -1.17047 | 6057 ft | 253 kts | 271° |
| 2026-05-09 14:59 | 50.77637 | -1.19813 | 5827 ft | 249 kts | 271° |
| 2026-05-09 14:59 | 50.77625 | -1.22556 | 5700 ft | 251 kts | 271° |
| 2026-05-09 14:59 | 50.77609 | -1.25321 | 5574 ft | 250 kts | 271° |
| 2026-05-09 15:00 | 50.77599 | -1.28064 | 5443 ft | 249 kts | 272° |
| 2026-05-09 15:00 | 50.77814 | -1.30723 | 5318 ft | 245 kts | 284° |
| 2026-05-09 15:00 | 50.78192 | -1.33296 | 5192 ft | 236 kts | 285° |
| 2026-05-09 15:00 | 50.78574 | -1.35792 | 4868 ft | 235 kts | 286° |
| 2026-05-09 15:01 | 50.79293 | -1.40574 | 4305 ft | 209 kts | 288° |
| 2026-05-09 15:01 | 50.79983 | -1.42404 | 4129 ft | 185 kts | 327° |
| 2026-05-09 15:01 | 50.81105 | -1.43022 | 3906 ft | 167 kts | 7° |
| 2026-05-09 15:02 | 50.82229 | -1.42710 | 3663 ft | 163 kts | 19° |
| 2026-05-09 15:02 | 50.83317 | -1.42220 | 3357 ft | 162 kts | 20° |
| 2026-05-09 15:02 | 50.84400 | -1.41703 | 2967 ft | 161 kts | 20° |
| 2026-05-09 15:02 | 50.85458 | -1.41196 | 2546 ft | 157 kts | 22° |
| 2026-05-09 15:03 | 50.86493 | -1.40684 | 2127 ft | 156 kts | 22° |
| 2026-05-09 15:03 | 50.87513 | -1.40115 | 1705 ft | 155 kts | 23° |
| 2026-05-09 15:03 | 50.88519 | -1.39542 | 1295 ft | 150 kts | 25° |
| 2026-05-09 15:03 | 50.89475 | -1.38996 | 1086 ft | 142 kts | 22° |
| 2026-05-09 15:04 | 50.90390 | -1.38476 | 889 ft | 140 kts | 22° |
| 2026-05-09 15:04 | 50.91289 | -1.37916 | 696 ft | 136 kts | 26° |
| 2026-05-09 15:06 | 50.95752 | -1.35274 | 43 ft | 24 kts | 19° |
| 2026-05-09 15:06 | 50.95838 | -1.35251 | 43 ft | 12 kts | 352° |
| 2026-05-09 15:06 | 50.95881 | -1.35211 | 43 ft | 4 kts | 154° |
| 2026-05-09 15:06 | 50.95855 | -1.35213 | 41 ft | 3 kts | 195° |
| 2026-05-09 15:07 | 50.95800 | -1.35248 | 43 ft | 15 kts | 201° |
| 2026-05-09 15:07 | 50.95659 | -1.35327 | 45 ft | 26 kts | 200° |
| 2026-05-09 15:07 | 50.95488 | -1.35424 | 41 ft | 27 kts | 199° |
| 2026-05-09 15:07 | 50.95304 | -1.35525 | 40 ft | 29 kts | 199° |
| 2026-05-09 15:08 | 50.95108 | -1.35634 | 40 ft | 30 kts | 199° |
| 2026-05-09 15:08 | 50.95023 | -1.35738 | 40 ft | 6 kts | 277° |
| 2026-05-09 15:08 | 50.95051 | -1.35861 | 38 ft | 16 kts | 289° |
| 2026-05-09 15:09 | 50.95019 | -1.35942 | 39 ft | 9 kts | 199° |
| 2026-05-09 15:10 | 50.94957 | -1.36058 | 39 ft | 1 kts | 19° |
| 2026-05-09 15:11 | 50.94959 | -1.36057 | 39 ft | 0 kts | 19° |